Share

Cairo, WV (26337)

Raven Rock (KWVSTMAR2) Elev 604 ft | 39.45 °N, 81.12 °W | Change Station

Current weather conditions updated 3 minutes ago

Clear
Clear
44.4 °F
Feels Like 44 °F
N
0.0
Wind Variable Wind from West
Sunrise 6:44 AM
Sunset 8:04 PM
Moon Waning Gibbous

Tomorrow is forecast to be nearly the same temperature as today.

Pressure 30.35 in
Visibility 10.0 miles
Clouds Clear
Windchill 44 °F
Dew Point 32 °F
Humidity 62%
Rainfall 0.00 in
Snow Depth Not available.
UV 0 out of 16
Pollen 9.20 out of 12
Air Quality Not available.
Flu Activity Sporadic
METAR KPKB 180253Z 16008KT 10SM CLR 14/M04 A3035 RMK AO2 SLP276 T01391044 50012

More Conditions Fewer Conditions

Pressure 30.35 in
Visibility 10.0 miles
Clouds Clear
Windchill 44 °F
Dew Point 32 °F
Humidity 62%
Rainfall 0.00 in
Snow Depth Not available.
UV 0 out of 16
Pollen 9.20 out of 12
Air Quality Not available.
Flu Activity Sporadic
METAR KPKB 180253Z 16008KT 10SM CLR 14/M04 A3035 RMK AO2 SLP276 T01391044 50012

More Conditions Fewer Conditions

10-Day Forecast

Almanac

Astronomy

Apr. 17, 2014 Rise Set
Actual Time 6:44 AM EDT 8:04 PM EDT
Civil Twilight 6:17 AM EDT 8:31 PM EDT
Nautical Twilight 5:43 AM EDT 9:05 PM EDT
Astronomical Twilight 5:08 AM EDT 9:40 PM EDT
Moon 10:47 PM EDT (4/17) 8:16 AM EDT (4/17)
Length of Visible Light 14h 14m
Length of Day
13h 19m
Tomorrow will be 2m 25s longer.
Waning Gibbous, 91% of the Moon is Illuminated
Today
Waning Gibbous
Apr 22
Last Quarter
Apr 29
New
May 6
First Quarter
May 14
Full

Today's Extremes

State Highs State Lows

Community

  • SUNRISE THROUGH THE TREES.
    SUNRISE THROUGH THE TREES.
  • Dog Wood Blossoms
    Dog Wood Blossoms
  • Morning Light
    Morning Light
  • New Day
    New Day
  • Lake Michigan Sunrise
    Lake Michigan Sunrise

WunderPhotos

Upload Photos

1,702,235 photos uploaded!

WunderBlogs® & News

Nearby

Snow Depth

Station Depth Elevation
No new snow has been reported.

Coastal Water Temperatures

Place Temperature
No Stations Reporting

Earthquake Activity

City Distance Mag. Time & Date
No recent earthquake activity has been reported nearby.
Minimum magnitude displayed is 2.5.

Nearby Weather Stations

Station Location Temp. Windchill Dew Point Humidity Wind Precip. Elev Updated Type
Raven Rock, St. Marys, WV 44.4 °F 44 °F 32 °F 62% West  at  0.0 mph 0.00 in / hr 604 ft 11:21 PM EDT Rapid Fire
W8PY @ Harmony, West Union, WV 43.1 °F 43 °F 37 °F 80% NW  at  1.0 mph 0.00 in / hr 984 ft 11:22 PM EDT Normal
36th and Emerson, Parkersburg, WV 55.8 °F - 31 °F 39% SE  at  3.0 mph 0.00 in / hr 705 ft 11:21 PM EDT Normal
RAWS CONAWAY LAKE WV, Alma, WV 63 °F - 20 °F 19% East  at  2 mph 0.00 in / hr 1189 ft 8:16 PM EDT MADIS

Show More Stations Show Fewer Stations

What do you think?

We're not finished. Please let us know what you like, what you don't like, and what you are still missing.